Time;durP1;ratioP1;P1;durP2;ratioP2;P2;SDS_P1;SDS_P2;PMS_P1;PMS_P2;Temp;Humidity;BMP_temperature;BMP_pressure;BME280_temperature;BME280_humidity;BME280_pressure;Samples;Min_cycle;Max_cycle;Signal;HPM_P1;HPM_P2
2022/05/28 00:01:20;;;;;;;4.38;1.90;;;17.00;99.90;;;;;;7392622;19;20130;-76
2022/05/28 00:03:46;;;;;;;2.90;1.70;;;17.00;99.90;;;;;;7391678;19;20143;-75
2022/05/28 00:06:18;;;;;;;2.92;1.48;;;17.00;99.90;;;;;;7392282;19;20729;-77
2022/05/28 00:08:44;;;;;;;3.33;1.52;;;17.00;99.90;;;;;;7392342;19;20280;-77
2022/05/28 00:11:32;;;;;;;4.13;1.92;;;17.00;99.90;;;;;;7392268;19;20151;-76
2022/05/28 00:13:58;;;;;;;6.00;1.73;;;17.00;99.90;;;;;;7395994;19;20171;-77
2022/05/28 00:16:24;;;;;;;5.90;1.77;;;16.90;99.90;;;;;;7391774;19;20557;-76
2022/05/28 00:18:52;;;;;;;3.17;1.80;;;16.90;99.90;;;;;;7390421;19;20143;-76
2022/05/28 00:21:18;;;;;;;2.35;1.40;;;16.90;99.90;;;;;;7392406;19;20134;-76
2022/05/28 00:23:45;;;;;;;3.63;1.88;;;16.90;99.90;;;;;;7392241;19;20138;-76
2022/05/28 00:26:12;;;;;;;2.92;1.75;;;16.70;99.90;;;;;;7394133;19;20239;-76
2022/05/28 00:28:38;;;;;;;3.15;1.73;;;16.80;99.90;;;;;;7392757;19;20134;-77
2022/05/28 00:31:04;;;;;;;6.00;1.92;;;16.90;99.90;;;;;;7393553;19;20205;-77
2022/05/28 00:33:30;;;;;;;3.22;1.90;;;16.80;99.90;;;;;;7395135;19;20143;-76
2022/05/28 00:35:58;;;;;;;2.58;1.70;;;16.70;99.90;;;;;;7394932;19;20150;-76
2022/05/28 00:38:27;;;;;;;3.17;1.98;;;16.70;99.90;;;;;;7394767;19;20163;-77
2022/05/28 00:40:58;;;;;;;4.32;2.20;;;16.70;99.90;;;;;;7393738;19;20138;-77
2022/05/28 00:43:25;;;;;;;4.35;2.10;;;16.70;99.90;;;;;;7396494;19;20485;-77
2022/05/28 00:45:57;;;;;;;4.22;1.98;;;16.60;99.90;;;;;;7396805;19;20151;-77
2022/05/28 00:48:27;;;;;;;6.22;2.10;;;16.60;99.90;;;;;;7393341;19;20135;-77
2022/05/28 00:50:53;;;;;;;4.13;1.95;;;16.60;99.90;;;;;;7394824;19;20194;-78
2022/05/28 00:53:19;;;;;;;4.57;2.05;;;16.70;99.90;;;;;;7393635;19;20144;-77
2022/05/28 00:55:45;;;;;;;3.42;2.20;;;16.60;99.90;;;;;;7392365;19;20146;-76
2022/05/28 00:58:11;;;;;;;4.80;1.98;;;16.50;99.90;;;;;;7391781;19;20219;-75
2022/05/28 01:00:38;;;;;;;5.95;2.25;;;16.50;99.90;;;;;;7393459;19;20155;-77
2022/05/28 01:03:17;;;;;;;5.60;2.10;;;16.40;99.90;;;;;;7394147;19;20150;-76
2022/05/28 01:05:46;;;;;;;4.55;2.28;;;16.40;99.90;;;;;;7393125;19;20145;-77
2022/05/28 01:08:23;;;;;;;4.68;2.25;;;16.50;99.90;;;;;;7393062;19;20632;-77
2022/05/28 01:11:07;;;;;;;3.47;2.22;;;16.50;99.90;;;;;;7392571;19;20127;-76
2022/05/28 01:13:49;;;;;;;3.00;1.80;;;16.50;99.90;;;;;;7393822;19;20169;-77
2022/05/28 01:16:19;;;;;;;5.90;2.10;;;16.40;99.90;;;;;;7394649;19;20146;-77
2022/05/28 01:19:09;;;;;;;3.65;2.15;;;16.30;99.90;;;;;;7392870;19;20135;-78
2022/05/28 01:22:00;;;;;;;3.83;2.30;;;16.40;99.90;;;;;;7390279;19;20131;-76
2022/05/28 01:25:07;;;;;;;7.72;2.40;;;16.30;99.90;;;;;;7391549;19;20229;-76
2022/05/28 01:27:57;;;;;;;3.40;1.75;;;16.30;99.90;;;;;;7392849;19;20156;-77
2022/05/28 01:30:23;;;;;;;7.75;2.20;;;16.30;99.90;;;;;;7392231;19;20146;-76
2022/05/28 01:32:52;;;;;;;5.28;2.33;;;16.30;99.90;;;;;;7391278;19;20610;-78
2022/05/28 01:35:19;;;;;;;4.70;2.50;;;16.30;99.90;;;;;;7394201;19;20134;-78
2022/05/28 01:37:47;;;;;;;5.00;2.33;;;16.30;99.90;;;;;;7389055;19;20142;-77
2022/05/28 01:40:15;;;;;;;3.83;2.10;;;16.30;99.90;;;;;;7392528;19;20145;-77
2022/05/28 01:42:51;;;;;;;4.53;1.70;;;16.30;99.90;;;;;;7391302;19;20139;-78
2022/05/28 01:45:20;;;;;;;4.10;1.58;;;16.30;99.90;;;;;;7393301;19;20203;-77
2022/05/28 01:47:49;;;;;;;5.40;2.00;;;16.20;99.90;;;;;;7389458;19;20134;-77
2022/05/28 01:50:18;;;;;;;4.82;2.33;;;16.10;99.90;;;;;;7390453;19;20137;-75
2022/05/28 01:52:45;;;;;;;2.95;1.60;;;16.10;99.90;;;;;;7394702;19;20150;-77
2022/05/28 01:55:14;;;;;;;5.35;1.60;;;16.10;99.90;;;;;;7390657;19;20142;-76
2022/05/28 01:57:40;;;;;;;5.03;2.05;;;16.10;99.90;;;;;;7390326;19;20186;-76
2022/05/28 02:00:06;;;;;;;5.15;1.70;;;16.10;99.90;;;;;;7390307;19;20138;-77
2022/05/28 02:02:32;;;;;;;4.50;1.60;;;16.10;99.90;;;;;;7390020;19;20154;-77
2022/05/28 02:04:59;;;;;;;3.33;1.90;;;16.00;99.90;;;;;;7388202;19;20652;-75
2022/05/28 02:07:24;;;;;;;5.03;2.15;;;16.10;99.90;;;;;;7389310;19;20225;-75
2022/05/28 02:10:00;;;;;;;5.82;1.42;;;16.00;99.90;;;;;;7390470;19;20143;-77
2022/05/28 02:12:40;;;;;;;6.68;1.73;;;15.90;99.90;;;;;;7387087;19;20521;-78
2022/05/28 02:15:15;;;;;;;4.03;1.58;;;15.80;99.90;;;;;;7388905;19;20134;-78
2022/05/28 02:17:52;;;;;;;6.07;1.77;;;15.60;99.90;;;;;;7386019;19;20170;-75
2022/05/28 02:20:36;;;;;;;5.85;2.00;;;15.60;99.90;;;;;;7391022;19;20152;-77
2022/05/28 02:23:05;;;;;;;6.45;1.80;;;15.60;99.90;;;;;;7392166;19;20150;-77
2022/05/28 02:25:48;;;;;;;8.05;1.23;;;15.60;99.90;;;;;;7388476;19;20175;-76
2022/05/28 02:28:14;;;;;;;4.03;1.67;;;15.70;99.90;;;;;;7389256;19;20151;-78
2022/05/28 02:31:02;;;;;;;2.25;1.17;;;15.80;99.90;;;;;;7389537;19;20514;-75
2022/05/28 02:33:32;;;;;;;5.72;1.67;;;15.80;99.90;;;;;;7390938;19;20138;-75
2022/05/28 02:35:59;;;;;;;6.45;1.40;;;15.70;99.90;;;;;;7393224;19;20160;-76
2022/05/28 02:38:25;;;;;;;8.77;1.80;;;15.60;99.90;;;;;;7387912;19;20157;-77
2022/05/28 02:40:54;;;;;;;2.92;1.15;;;15.60;99.90;;;;;;7386171;19;20157;-76
2022/05/28 02:43:22;;;;;;;5.55;1.42;;;15.50;99.90;;;;;;7389213;19;20142;-77
2022/05/28 02:45:47;;;;;;;7.18;1.67;;;15.30;99.90;;;;;;7389974;19;20877;-78
2022/05/28 02:48:13;;;;;;;8.32;1.75;;;15.40;99.90;;;;;;7388542;19;20137;-76
2022/05/28 02:50:39;;;;;;;1.85;1.00;;;15.30;99.90;;;;;;7387034;19;20214;-76
2022/05/28 02:53:05;;;;;;;3.22;1.33;;;15.40;99.90;;;;;;7396038;19;20135;-77
2022/05/28 02:55:32;;;;;;;6.03;1.55;;;15.40;99.90;;;;;;7384735;19;20142;-77
2022/05/28 02:57:58;;;;;;;4.20;1.30;;;15.50;99.90;;;;;;7385823;19;20146;-77
2022/05/28 03:00:24;;;;;;;7.10;1.85;;;15.50;99.90;;;;;;7390625;19;20923;-77
2022/05/28 03:02:50;;;;;;;2.85;1.15;;;15.50;99.90;;;;;;7389433;19;20143;-76
2022/05/28 03:05:19;;;;;;;4.05;1.38;;;15.50;99.90;;;;;;7388555;19;20167;-76
2022/05/28 03:07:45;;;;;;;5.30;1.27;;;15.40;99.90;;;;;;7391667;19;20139;-77
2022/05/28 03:10:11;;;;;;;3.47;1.20;;;15.30;99.90;;;;;;7386311;19;20129;-77
2022/05/28 03:12:38;;;;;;;4.03;1.42;;;15.30;99.90;;;;;;7387650;19;20146;-76
2022/05/28 03:15:05;;;;;;;3.30;1.40;;;15.10;99.90;;;;;;7387071;19;20156;-77
2022/05/28 03:17:31;;;;;;;5.35;1.45;;;15.20;99.90;;;;;;7383507;19;20259;-77
2022/05/28 03:19:59;;;;;;;4.60;1.30;;;15.20;99.90;;;;;;7382167;19;20557;-78
2022/05/28 03:22:24;;;;;;;3.40;1.20;;;14.80;99.90;;;;;;7390693;19;20134;-78
2022/05/28 03:24:50;;;;;;;4.05;1.20;;;15.00;99.90;;;;;;7389047;19;20213;-78
2022/05/28 03:27:16;;;;;;;4.80;1.20;;;15.10;99.90;;;;;;7386992;19;20138;-78
2022/05/28 03:29:42;;;;;;;6.72;1.55;;;15.10;99.90;;;;;;7387202;19;20142;-78
2022/05/28 03:32:08;;;;;;;3.55;1.48;;;15.20;99.90;;;;;;7386843;19;20145;-76
2022/05/28 03:34:33;;;;;;;5.35;1.30;;;15.10;99.90;;;;;;7388762;19;20127;-75
2022/05/28 03:36:59;;;;;;;5.15;1.45;;;14.80;99.90;;;;;;7389662;19;20155;-74
2022/05/28 03:39:25;;;;;;;2.75;1.17;;;14.90;99.90;;;;;;7388884;19;20150;-76
2022/05/28 03:41:51;;;;;;;6.03;1.55;;;15.00;99.90;;;;;;7384561;19;20157;-75
2022/05/28 03:44:16;;;;;;;3.17;1.42;;;15.00;99.90;;;;;;7384101;19;20146;-77
2022/05/28 03:46:43;;;;;;;4.47;1.30;;;15.00;99.90;;;;;;7388298;19;20190;-77
2022/05/28 03:49:29;;;;;;;3.20;1.00;;;14.70;99.90;;;;;;7388538;19;20135;-75
2022/05/28 03:51:56;;;;;;;6.70;1.90;;;14.80;99.90;;;;;;7387214;19;20139;-76
2022/05/28 03:54:21;;;;;;;4.88;1.40;;;15.00;99.90;;;;;;7391916;19;20143;-77
2022/05/28 03:56:49;;;;;;;5.65;1.40;;;15.00;99.90;;;;;;7396062;19;20153;-76
2022/05/28 03:59:15;;;;;;;4.20;1.02;;;15.00;99.90;;;;;;7392566;19;20214;-77
2022/05/28 04:01:41;;;;;;;5.55;1.13;;;15.00;99.90;;;;;;7390795;19;20602;-76
2022/05/28 04:04:07;;;;;;;4.35;1.45;;;15.00;99.90;;;;;;7391528;19;20214;-77
2022/05/28 04:06:35;;;;;;;3.15;1.17;;;15.00;99.90;;;;;;7393451;19;20139;-76
2022/05/28 04:09:02;;;;;;;3.17;1.13;;;15.00;99.90;;;;;;7394578;19;20257;-75
2022/05/28 04:11:27;;;;;;;4.70;1.88;;;15.00;99.90;;;;;;7390581;19;20154;-78
2022/05/28 04:13:54;;;;;;;5.55;1.67;;;14.80;99.90;;;;;;7393185;19;20166;-78
2022/05/28 04:16:19;;;;;;;6.88;1.33;;;14.80;99.90;;;;;;7393279;19;20234;-76
2022/05/28 04:18:45;;;;;;;5.65;1.65;;;14.90;99.90;;;;;;7391012;19;20176;-79
2022/05/28 04:21:11;;;;;;;6.60;1.42;;;14.80;99.90;;;;;;7391248;19;20141;-76
2022/05/28 04:23:37;;;;;;;3.47;1.20;;;14.50;99.90;;;;;;7393782;19;20135;-77
2022/05/28 04:26:03;;;;;;;7.53;1.48;;;14.70;99.90;;;;;;7394529;19;20152;-78
2022/05/28 04:28:29;;;;;;;2.30;0.98;;;14.60;99.90;;;;;;7391534;19;20118;-78
2022/05/28 04:30:55;;;;;;;5.65;1.58;;;14.50;99.90;;;;;;7398446;19;20138;-76
2022/05/28 04:33:21;;;;;;;7.05;1.40;;;14.50;99.90;;;;;;7395312;19;20139;-76
2022/05/28 04:35:46;;;;;;;2.50;1.17;;;14.70;99.90;;;;;;7393511;19;20141;-76
2022/05/28 04:38:12;;;;;;;6.03;1.40;;;14.60;99.90;;;;;;7392866;19;20161;-78
2022/05/28 04:40:38;;;;;;;5.53;1.40;;;14.60;99.90;;;;;;7393906;19;20590;-77
2022/05/28 04:43:04;;;;;;;3.53;1.33;;;14.50;99.90;;;;;;7390302;19;20155;-78
2022/05/28 04:45:30;;;;;;;2.20;1.17;;;14.60;99.90;;;;;;7392450;19;20142;-79
2022/05/28 04:47:56;;;;;;;4.35;1.38;;;14.70;99.90;;;;;;7392071;19;20135;-78
2022/05/28 04:50:22;;;;;;;6.45;1.50;;;14.80;99.90;;;;;;7393970;19;20129;-76
2022/05/28 04:52:47;;;;;;;7.20;1.08;;;14.60;99.90;;;;;;7392666;19;20456;-77
2022/05/28 04:55:13;;;;;;;4.57;1.33;;;14.60;99.90;;;;;;7394396;19;20159;-76
2022/05/28 04:57:39;;;;;;;4.07;1.63;;;14.50;99.90;;;;;;7391013;19;20131;-77
2022/05/28 05:00:14;;;;;;;4.65;1.40;;;14.60;99.90;;;;;;7387835;19;20546;-77
2022/05/28 05:02:40;;;;;;;3.10;1.20;;;14.60;99.90;;;;;;7388635;19;20150;-77
2022/05/28 05:05:06;;;;;;;4.13;1.15;;;14.60;99.90;;;;;;7391927;19;20149;-78
2022/05/28 05:07:32;;;;;;;5.05;1.23;;;14.70;99.90;;;;;;7393216;19;20137;-75
2022/05/28 05:09:58;;;;;;;2.35;1.48;;;14.80;99.90;;;;;;7389271;19;20210;-74
2022/05/28 05:12:24;;;;;;;5.00;1.40;;;14.70;99.90;;;;;;7391926;19;20484;-77
2022/05/28 05:14:49;;;;;;;2.20;1.20;;;14.80;99.90;;;;;;7389981;19;20146;-78
2022/05/28 05:17:15;;;;;;;4.13;1.38;;;14.80;99.90;;;;;;7390635;19;20182;-78
2022/05/28 05:19:41;;;;;;;5.97;1.40;;;14.90;99.90;;;;;;7389406;19;20162;-77
2022/05/28 05:22:07;;;;;;;5.03;1.60;;;14.80;99.90;;;;;;7389987;19;20154;-78
2022/05/28 05:24:33;;;;;;;7.38;1.50;;;14.90;99.90;;;;;;7389914;19;20918;-76
2022/05/28 05:27:03;;;;;;;1.90;0.95;;;14.90;99.90;;;;;;7392736;19;20173;-76
2022/05/28 05:29:29;;;;;;;4.25;1.27;;;15.00;99.90;;;;;;7390776;19;20135;-76
2022/05/28 05:31:55;;;;;;;6.03;1.75;;;15.00;99.90;;;;;;7389879;19;20154;-79
2022/05/28 05:34:21;;;;;;;6.33;1.40;;;15.00;99.90;;;;;;7388394;19;20614;-80
2022/05/28 05:36:46;;;;;;;5.88;1.50;;;15.00;99.90;;;;;;7389893;19;20601;-76
2022/05/28 05:39:12;;;;;;;3.65;1.35;;;15.00;99.90;;;;;;7390874;19;20131;-80
2022/05/28 05:41:42;;;;;;;6.80;1.30;;;15.10;99.90;;;;;;7390717;19;20146;-78
2022/05/28 05:44:08;;;;;;;4.65;1.40;;;15.00;99.90;;;;;;7396133;19;20158;-76
2022/05/28 05:46:36;;;;;;;5.07;1.35;;;14.80;99.90;;;;;;7388488;19;20169;-78
2022/05/28 05:49:03;;;;;;;5.53;1.33;;;14.70;99.90;;;;;;7387941;19;20198;-76
2022/05/28 05:51:29;;;;;;;4.35;1.42;;;14.70;99.90;;;;;;7390323;19;20194;-79
2022/05/28 05:53:55;;;;;;;5.22;1.67;;;14.90;99.90;;;;;;7389934;19;20160;-76
2022/05/28 05:56:21;;;;;;;3.30;1.30;;;14.90;99.90;;;;;;7391871;19;20131;-76
2022/05/28 05:58:46;;;;;;;5.83;1.50;;;14.90;99.90;;;;;;7387312;19;20150;-76
2022/05/28 06:01:13;;;;;;;4.10;1.27;;;15.00;99.90;;;;;;7394575;19;20134;-79
2022/05/28 06:03:44;;;;;;;5.45;1.50;;;15.00;99.90;;;;;;7391543;19;20174;-76
2022/05/28 06:06:12;;;;;;;3.72;1.20;;;15.20;99.90;;;;;;7386941;19;20131;-76
2022/05/28 06:08:38;;;;;;;3.75;1.38;;;15.10;99.90;;;;;;7388940;19;20142;-77
2022/05/28 06:11:04;;;;;;;5.18;2.00;;;15.10;99.90;;;;;;7387659;19;20214;-79
2022/05/28 06:13:31;;;;;;;6.40;1.27;;;15.10;99.90;;;;;;7386206;19;20138;-77
2022/05/28 06:15:57;;;;;;;4.18;1.35;;;16.30;99.90;;;;;;7388906;19;20154;-76
2022/05/28 06:18:23;;;;;;;4.70;1.42;;;17.20;99.90;;;;;;7389147;19;20139;-80
2022/05/28 06:20:52;;;;;;;2.63;1.00;;;17.50;99.90;;;;;;7390597;19;20319;-81
2022/05/28 06:23:18;;;;;;;6.45;1.15;;;17.80;99.90;;;;;;7390734;19;20167;-76
2022/05/28 06:25:44;;;;;;;2.65;1.02;;;18.10;99.90;;;;;;7390798;19;20130;-81
2022/05/28 06:28:10;;;;;;;3.08;1.25;;;18.50;99.90;;;;;;7385350;19;20150;-79
2022/05/28 06:30:36;;;;;;;1.40;0.70;;;19.10;98.80;;;;;;7391978;19;20141;-76
2022/05/28 06:33:02;;;;;;;4.97;1.63;;;19.80;97.80;;;;;;7389378;19;20127;-76
2022/05/28 06:35:31;;;;;;;2.30;0.80;;;20.10;96.40;;;;;;7387418;19;20594;-78
2022/05/28 06:37:57;;;;;;;4.53;1.10;;;20.20;94.70;;;;;;7385859;19;20150;-76
2022/05/28 06:40:23;;;;;;;3.70;1.13;;;19.70;94.50;;;;;;7389439;19;20638;-76
2022/05/28 06:42:51;;;;;;;3.55;0.90;;;19.30;94.90;;;;;;7389425;19;20164;-77
2022/05/28 06:45:17;;;;;;;6.35;1.23;;;19.10;94.80;;;;;;7384304;19;20145;-75
2022/05/28 06:47:45;;;;;;;5.55;1.08;;;19.00;94.40;;;;;;7390360;19;20142;-79
2022/05/28 06:52:58;;;;;;;3.45;0.90;;;18.80;94.50;;;;;;7387463;19;20131;-75
2022/05/28 06:55:24;;;;;;;6.65;0.93;;;19.10;94.20;;;;;;7385756;19;20158;-75
2022/05/28 06:57:50;;;;;;;4.13;0.90;;;19.00;94.40;;;;;;7387276;19;20246;-78
2022/05/28 07:00:17;;;;;;;2.70;1.10;;;19.00;94.40;;;;;;7387112;19;20800;-76
2022/05/28 07:02:43;;;;;;;2.65;0.90;;;19.50;94.80;;;;;;7383096;19;20485;-75
2022/05/28 07:05:11;;;;;;;3.92;1.40;;;19.90;93.50;;;;;;7388412;19;20171;-77
2022/05/28 07:07:37;;;;;;;6.03;1.20;;;19.70;93.50;;;;;;7388810;19;20145;-77
2022/05/28 07:10:04;;;;;;;2.00;0.90;;;19.80;93.40;;;;;;7386903;19;20162;-76
2022/05/28 07:12:30;;;;;;;2.38;0.95;;;19.70;92.80;;;;;;7385444;19;20158;-75
2022/05/28 07:14:55;;;;;;;2.53;0.70;;;19.60;93.20;;;;;;7387456;19;20201;-76
2022/05/28 07:17:22;;;;;;;1.25;0.70;;;19.40;93.00;;;;;;7384297;19;20502;-75
2022/05/28 07:19:49;;;;;;;5.03;1.02;;;19.00;93.10;;;;;;7382332;19;20143;-78
2022/05/28 07:22:16;;;;;;;1.60;0.68;;;19.40;92.90;;;;;;7387598;19;20180;-77
2022/05/28 07:24:43;;;;;;;2.65;0.70;;;19.90;92.60;;;;;;7389620;19;20190;-77
2022/05/28 07:27:11;;;;;;;2.88;1.00;;;19.70;92.00;;;;;;7394073;19;20151;-76
2022/05/28 07:29:37;;;;;;;4.47;0.93;;;19.40;92.50;;;;;;7393665;19;20162;-75
2022/05/28 07:32:03;;;;;;;3.15;0.90;;;19.20;92.80;;;;;;7393539;19;20608;-78
2022/05/28 07:34:29;;;;;;;2.55;0.60;;;19.30;91.90;;;;;;7394139;19;20138;-77
2022/05/28 07:36:55;;;;;;;1.08;0.60;;;19.20;91.80;;;;;;7397422;19;20515;-78
2022/05/28 07:39:20;;;;;;;4.63;1.10;;;19.40;92.40;;;;;;7391388;19;20143;-76
2022/05/28 07:41:48;;;;;;;2.65;0.80;;;19.60;92.20;;;;;;7397057;19;20131;-75
2022/05/28 07:44:16;;;;;;;3.75;0.82;;;19.90;91.90;;;;;;7394229;19;20135;-79
2022/05/28 07:46:42;;;;;;;3.30;0.90;;;20.10;91.50;;;;;;7396135;19;20602;-77
2022/05/28 07:49:09;;;;;;;3.80;0.95;;;20.30;91.20;;;;;;7394552;19;20151;-77
2022/05/28 07:51:38;;;;;;;4.25;0.70;;;20.50;91.50;;;;;;7393994;19;20154;-77
2022/05/28 07:54:06;;;;;;;2.33;0.73;;;20.80;90.70;;;;;;7393325;19;20134;-75
2022/05/28 07:56:32;;;;;;;4.68;1.10;;;21.00;90.80;;;;;;7394197;19;20510;-78
2022/05/28 07:59:01;;;;;;;2.67;1.20;;;20.50;90.20;;;;;;7396692;19;20131;-79
2022/05/28 08:01:31;;;;;;;3.78;0.80;;;20.50;90.40;;;;;;7390802;19;20141;-77
2022/05/28 08:04:02;;;;;;;4.28;1.48;;;20.20;90.00;;;;;;7389776;19;20157;-76
2022/05/28 08:06:31;;;;;;;2.25;0.73;;;19.80;90.30;;;;;;7393388;19;20158;-77
2022/05/28 08:08:57;;;;;;;2.78;0.90;;;19.80;89.80;;;;;;7392625;19;20138;-79
2022/05/28 08:11:24;;;;;;;0.93;0.50;;;19.20;89.40;;;;;;7392955;19;20170;-76
2022/05/28 08:13:51;;;;;;;5.55;3.30;;;19.20;89.90;;;;;;7395219;19;20470;-77
2022/05/28 08:16:18;;;;;;;3.53;0.70;;;19.60;89.20;;;;;;7391963;19;20247;-79
2022/05/28 08:18:44;;;;;;;3.38;0.68;;;19.90;88.50;;;;;;7394318;19;20154;-78
2022/05/28 08:24:11;;;;;;;1.55;0.80;;;20.50;86.70;;;;;;7389575;19;20652;-77
2022/05/28 08:26:38;;;;;;;1.80;0.77;;;20.10;88.60;;;;;;7391064;19;20209;-76
2022/05/28 08:29:05;;;;;;;4.32;0.70;;;19.70;90.10;;;;;;7390582;19;20154;-76
2022/05/28 08:31:31;;;;;;;2.42;1.23;;;19.50;90.30;;;;;;7390012;19;20162;-76
2022/05/28 08:33:57;;;;;;;2.55;0.95;;;19.80;90.70;;;;;;7394996;19;20142;-80
2022/05/28 08:36:24;;;;;;;3.15;0.70;;;19.60;91.60;;;;;;7395766;19;20720;-78
2022/05/28 08:38:52;;;;;;;3.05;0.85;;;19.90;91.00;;;;;;7389706;19;20141;-78
2022/05/28 08:41:25;;;;;;;2.67;0.93;;;19.60;90.50;;;;;;7393145;19;20154;-76
2022/05/28 08:44:08;;;;;;;1.50;0.70;;;19.40;91.20;;;;;;7387273;19;20150;-76
2022/05/28 08:46:36;;;;;;;2.42;0.90;;;19.30;91.30;;;;;;7391093;19;20150;-75
2022/05/28 08:49:05;;;;;;;1.77;0.70;;;19.20;91.20;;;;;;7391165;19;20602;-81
2022/05/28 08:52:03;;;;;;;2.45;0.80;;;19.00;91.40;;;;;;7393345;19;20758;-78
2022/05/28 08:54:34;;;;;;;3.30;0.90;;;18.90;91.80;;;;;;7391453;19;20147;-76
2022/05/28 08:57:13;;;;;;;2.97;0.57;;;19.10;92.10;;;;;;7392414;19;20231;-80
2022/05/28 08:59:48;;;;;;;3.47;0.70;;;19.30;91.90;;;;;;7392040;19;20467;-81
2022/05/28 09:02:41;;;;;;;3.63;1.00;;;19.70;91.20;;;;;;7390340;19;20145;-79
2022/05/28 09:05:18;;;;;;;1.67;0.90;;;19.50;91.40;;;;;;7390893;19;20217;-76
2022/05/28 09:07:44;;;;;;;2.78;0.80;;;19.70;90.90;;;;;;7391526;19;20202;-78
2022/05/28 09:10:11;;;;;;;1.63;0.90;;;19.30;90.90;;;;;;7391641;19;20612;-76
2022/05/28 09:12:49;;;;;;;2.45;0.80;;;19.10;91.50;;;;;;7391703;19;20131;-80
2022/05/28 09:15:15;;;;;;;3.28;1.13;;;19.00;91.90;;;;;;7390795;19;20214;-75
2022/05/28 09:17:47;;;;;;;3.97;1.13;;;18.90;92.50;;;;;;7387062;19;20521;-78
2022/05/28 09:20:20;;;;;;;3.22;1.40;;;18.80;92.60;;;;;;7387719;19;20172;-77
2022/05/28 09:22:46;;;;;;;2.42;1.10;;;18.60;93.10;;;;;;7390842;19;20873;-77
2022/05/28 09:25:13;;;;;;;1.17;0.70;;;18.70;92.80;;;;;;7395607;19;20220;-79
2022/05/28 09:27:52;;;;;;;1.77;0.63;;;18.50;92.00;;;;;;7389603;19;20134;-75
2022/05/28 09:30:24;;;;;;;2.92;0.77;;;18.30;92.20;;;;;;7393338;19;20603;-75
2022/05/28 09:33:15;;;;;;;3.60;1.40;;;18.40;92.30;;;;;;7390059;19;20150;-78
2022/05/28 09:36:02;;;;;;;2.15;0.73;;;18.30;92.10;;;;;;7388785;19;20157;-75
2022/05/28 09:38:40;;;;;;;2.63;0.90;;;18.20;92.10;;;;;;7386597;19;21176;-75
2022/05/28 09:41:36;;;;;;;3.22;1.08;;;18.10;92.00;;;;;;7387099;19;20150;-74
2022/05/28 09:44:14;;;;;;;0.80;0.52;;;18.10;92.60;;;;;;7397174;19;20501;-77
2022/05/28 09:46:43;;;;;;;1.65;0.68;;;18.40;92.60;;;;;;7391684;19;20139;-75
2022/05/28 09:49:22;;;;;;;1.02;0.75;;;18.50;92.10;;;;;;7388271;19;20146;-75
2022/05/28 09:52:09;;;;;;;3.97;1.17;;;18.30;92.20;;;;;;7389840;19;20202;-75
2022/05/28 09:54:36;;;;;;;3.20;0.93;;;18.50;91.80;;;;;;7388383;19;20498;-75
2022/05/28 09:57:27;;;;;;;2.78;0.80;;;18.40;91.90;;;;;;7392710;19;20655;-77
2022/05/28 09:59:59;;;;;;;1.38;0.65;;;18.40;92.10;;;;;;7389986;19;20160;-80
2022/05/28 10:02:33;;;;;;;4.03;0.65;;;18.30;92.90;;;;;;7391353;19;20168;-77
2022/05/28 10:05:16;;;;;;;1.75;0.70;;;18.30;92.40;;;;;;7387974;19;20178;-80
2022/05/28 10:07:52;;;;;;;2.17;0.80;;;18.10;92.20;;;;;;7388575;19;20142;-76
2022/05/28 10:10:35;;;;;;;1.90;1.00;;;18.10;91.90;;;;;;7389921;19;20563;-79
2022/05/28 10:13:17;;;;;;;2.97;0.70;;;18.20;91.60;;;;;;7388840;19;20139;-75
2022/05/28 10:15:54;;;;;;;2.70;0.98;;;18.30;91.90;;;;;;7391444;19;20159;-76
2022/05/28 10:18:26;;;;;;;5.15;1.10;;;18.30;92.10;;;;;;7389410;19;20134;-76
2022/05/28 10:21:17;;;;;;;4.35;1.27;;;18.30;92.40;;;;;;7387222;19;20146;-78
2022/05/28 10:24:05;;;;;;;4.40;0.90;;;18.40;91.80;;;;;;7385194;19;20488;-78
2022/05/28 10:26:39;;;;;;;2.20;1.00;;;18.40;92.30;;;;;;7387364;19;20620;-80
2022/05/28 10:29:15;;;;;;;3.08;0.77;;;18.30;91.80;;;;;;7386481;19;20138;-75
2022/05/28 10:31:41;;;;;;;2.20;0.85;;;18.10;92.10;;;;;;7390739;19;20145;-75
2022/05/28 10:34:27;;;;;;;2.67;0.85;;;17.90;92.50;;;;;;7392270;19;20146;-75
2022/05/28 10:36:53;;;;;;;2.45;0.70;;;17.80;92.80;;;;;;7389185;19;20138;-80
2022/05/28 10:39:19;;;;;;;1.88;0.82;;;17.80;92.90;;;;;;7386422;19;20134;-78
2022/05/28 10:41:50;;;;;;;3.90;1.27;;;17.90;93.00;;;;;;7389484;19;20168;-74
2022/05/28 10:44:16;;;;;;;4.85;1.92;;;17.90;93.00;;;;;;7388251;19;20533;-75
2022/05/28 10:47:15;;;;;;;1.50;0.93;;;17.90;93.20;;;;;;7388452;19;20265;-75
2022/05/28 10:49:47;;;;;;;2.13;0.85;;;18.00;92.60;;;;;;7395023;19;20131;-76
2022/05/28 10:52:46;;;;;;;2.15;1.08;;;18.10;92.20;;;;;;7389399;19;20206;-74
2022/05/28 10:55:29;;;;;;;2.53;0.73;;;18.20;92.70;;;;;;7389849;19;20154;-75
2022/05/28 10:58:27;;;;;;;2.67;0.63;;;18.10;91.90;;;;;;7387488;19;20213;-79
2022/05/28 11:01:06;;;;;;;1.65;0.60;;;18.00;91.10;;;;;;7384992;19;20150;-75
2022/05/28 11:03:47;;;;;;;2.30;0.88;;;17.90;90.00;;;;;;7391570;19;20261;-79
2022/05/28 11:06:33;;;;;;;1.85;0.80;;;18.10;90.20;;;;;;7396970;19;20138;-78
2022/05/28 11:09:12;;;;;;;2.10;0.70;;;18.20;90.30;;;;;;7394294;19;20131;-75
2022/05/28 11:12:06;;;;;;;1.45;0.70;;;18.30;90.50;;;;;;7393110;19;20144;-76
2022/05/28 11:15:07;;;;;;;3.72;0.80;;;18.60;90.60;;;;;;7392531;19;20134;-79
2022/05/28 11:17:38;;;;;;;3.42;0.68;;;18.60;90.30;;;;;;7392925;19;20157;-74
2022/05/28 11:20:31;;;;;;;3.28;0.88;;;18.60;91.10;;;;;;7393262;19;20147;-81
2022/05/28 11:23:25;;;;;;;3.15;0.85;;;18.80;90.90;;;;;;7396532;19;20149;-79
2022/05/28 11:26:13;;;;;;;2.42;0.82;;;18.80;90.50;;;;;;7399889;19;20173;-75
2022/05/28 11:28:58;;;;;;;2.47;0.60;;;19.00;90.50;;;;;;7394146;19;20162;-77
2022/05/28 11:31:36;;;;;;;2.38;0.68;;;19.00;87.40;;;;;;7395076;19;20233;-77
2022/05/28 11:34:12;;;;;;;2.28;0.73;;;18.80;87.90;;;;;;7396373;19;20127;-75
2022/05/28 11:36:43;;;;;;;3.53;0.68;;;18.80;86.80;;;;;;7391103;19;20146;-77
2022/05/28 11:39:32;;;;;;;0.98;0.50;;;18.80;86.30;;;;;;7396208;19;20135;-76
2022/05/28 11:42:13;;;;;;;1.65;0.82;;;18.80;88.00;;;;;;7392037;19;20139;-75
2022/05/28 11:44:52;;;;;;;3.13;0.90;;;19.00;87.00;;;;;;7397888;19;20223;-81
2022/05/28 11:47:34;;;;;;;3.45;0.70;;;19.00;87.20;;;;;;7393376;19;20131;-78
2022/05/28 11:53:04;;;;;;;0.68;0.60;;;19.20;89.20;;;;;;7395981;19;20223;-76
2022/05/28 11:55:33;;;;;;;2.40;0.88;;;19.50;87.70;;;;;;7393993;19;20138;-79
2022/05/28 11:58:15;;;;;;;1.55;0.57;;;19.60;85.30;;;;;;7393997;19;20168;-77
2022/05/28 12:00:52;;;;;;;1.73;1.00;;;19.30;85.50;;;;;;7399787;19;20178;-76
2022/05/28 12:03:29;;;;;;;3.30;1.02;;;19.30;85.30;;;;;;7394665;19;20177;-77
2022/05/28 12:06:28;;;;;;;1.73;0.80;;;19.40;85.70;;;;;;7393426;19;20146;-76
2022/05/28 12:09:22;;;;;;;4.68;1.15;;;19.50;86.60;;;;;;7393489;19;20139;-76
2022/05/28 12:12:02;;;;;;;7.35;3.63;;;19.60;86.60;;;;;;7391031;19;20130;-77
2022/05/28 12:14:29;;;;;;;4.55;1.10;;;19.70;86.60;;;;;;7393681;19;20151;-76
2022/05/28 12:17:07;;;;;;;2.97;1.52;;;19.50;85.20;;;;;;7391215;19;20158;-76
2022/05/28 12:19:34;;;;;;;1.52;0.65;;;19.40;86.10;;;;;;7392518;19;20158;-77
2022/05/28 12:22:26;;;;;;;1.85;1.30;;;19.20;86.40;;;;;;7396096;19;20285;-77
2022/05/28 12:25:16;;;;;;;2.75;0.70;;;19.10;87.00;;;;;;7392633;19;20161;-76
2022/05/28 12:27:55;;;;;;;1.85;0.70;;;19.20;87.50;;;;;;7388935;19;20150;-77
2022/05/28 12:30:45;;;;;;;1.90;0.90;;;19.10;86.90;;;;;;7392791;19;20174;-76
2022/05/28 12:33:58;;;;;;;3.25;1.50;;;18.90;87.00;;;;;;7394873;19;20135;-76
2022/05/28 12:36:38;;;;;;;2.15;0.88;;;18.80;87.50;;;;;;7393557;19;20444;-77
2022/05/28 12:39:06;;;;;;;4.70;1.90;;;18.90;88.50;;;;;;7392245;19;20138;-76
2022/05/28 12:41:36;;;;;;;2.50;0.98;;;18.90;89.30;;;;;;7391292;19;20146;-77
2022/05/28 12:44:16;;;;;;;1.90;1.02;;;19.00;88.20;;;;;;7394493;19;20135;-76
2022/05/28 12:46:54;;;;;;;1.98;0.98;;;18.90;88.70;;;;;;7391930;19;20141;-76
2022/05/28 12:49:31;;;;;;;3.08;1.08;;;18.90;88.90;;;;;;7389067;19;20162;-76
2022/05/28 12:52:27;;;;;;;2.13;0.90;;;18.90;88.80;;;;;;7391648;19;20213;-76
2022/05/28 12:55:05;;;;;;;2.13;0.68;;;18.80;89.90;;;;;;7395769;19;20151;-76
2022/05/28 12:57:34;;;;;;;4.15;1.00;;;18.80;90.20;;;;;;7389190;19;20554;-77
2022/05/28 13:00:06;;;;;;;1.90;0.95;;;19.10;90.10;;;;;;7390325;19;20139;-77
2022/05/28 13:02:52;;;;;;;2.50;0.60;;;19.40;88.60;;;;;;7392161;19;20143;-75
2022/05/28 13:05:29;;;;;;;2.38;0.55;;;19.30;86.60;;;;;;7392350;19;20154;-78
2022/05/28 13:08:12;;;;;;;3.20;0.70;;;19.00;86.80;;;;;;7391713;19;20143;-77
2022/05/28 13:10:47;;;;;;;4.28;1.40;;;19.00;87.90;;;;;;7392104;19;20215;-77
2022/05/28 13:13:28;;;;;;;2.80;1.17;;;19.10;88.20;;;;;;7398370;19;20177;-76
2022/05/28 13:16:10;;;;;;;1.63;0.75;;;19.20;88.60;;;;;;7391951;19;20369;-77
2022/05/28 13:19:04;;;;;;;1.75;0.52;;;19.30;86.20;;;;;;7390050;19;20614;-76
2022/05/28 13:21:57;;;;;;;1.40;0.70;;;19.20;85.20;;;;;;7391164;19;20230;-76